sensor_id;sensor_type;location;lat;lon;timestamp;P1;durP1;ratioP1;P2;durP2;ratioP2
8986;SDS011;4529;51.360;12.474;2023-07-31T00:02:37;4.23;;;2.03;;
8986;SDS011;4529;51.360;12.474;2023-07-31T00:07:40;4.40;;;1.83;;
8986;SDS011;4529;51.360;12.474;2023-07-31T00:12:44;3.30;;;1.70;;
8986;SDS011;4529;51.360;12.474;2023-07-31T00:17:47;2.13;;;1.70;;
8986;SDS011;4529;51.360;12.474;2023-07-31T00:22:50;3.57;;;1.80;;
8986;SDS011;4529;51.360;12.474;2023-07-31T00:27:54;2.23;;;1.80;;
8986;SDS011;4529;51.360;12.474;2023-07-31T00:32:59;2.37;;;1.80;;
8986;SDS011;4529;51.360;12.474;2023-07-31T00:38:03;2.60;;;1.83;;
8986;SDS011;4529;51.360;12.474;2023-07-31T00:43:06;2.60;;;2.10;;
8986;SDS011;4529;51.360;12.474;2023-07-31T00:48:11;3.13;;;1.73;;
8986;SDS011;4529;51.360;12.474;2023-07-31T00:53:15;8.47;;;2.10;;
8986;SDS011;4529;51.360;12.474;2023-07-31T00:58:19;3.70;;;1.87;;
8986;SDS011;4529;51.360;12.474;2023-07-31T01:03:22;2.67;;;2.07;;
8986;SDS011;4529;51.360;12.474;2023-07-31T01:08:29;3.70;;;1.90;;
8986;SDS011;4529;51.360;12.474;2023-07-31T01:13:35;4.20;;;1.90;;
8986;SDS011;4529;51.360;12.474;2023-07-31T01:18:40;1.80;;;1.70;;
8986;SDS011;4529;51.360;12.474;2023-07-31T01:34:46;2.80;;;1.80;;
8986;SDS011;4529;51.360;12.474;2023-07-31T01:39:49;2.07;;;1.80;;
8986;SDS011;4529;51.360;12.474;2023-07-31T01:44:52;4.00;;;1.80;;
8986;SDS011;4529;51.360;12.474;2023-07-31T01:49:56;3.17;;;1.87;;
8986;SDS011;4529;51.360;12.474;2023-07-31T01:54:59;3.87;;;1.73;;
8986;SDS011;4529;51.360;12.474;2023-07-31T02:00:04;4.27;;;2.10;;
8986;SDS011;4529;51.360;12.474;2023-07-31T02:05:08;5.40;;;2.00;;
8986;SDS011;4529;51.360;12.474;2023-07-31T02:10:12;2.90;;;2.10;;
8986;SDS011;4529;51.360;12.474;2023-07-31T02:15:16;2.53;;;2.00;;
8986;SDS011;4529;51.360;12.474;2023-07-31T02:20:20;3.37;;;1.90;;
8986;SDS011;4529;51.360;12.474;2023-07-31T02:25:24;3.60;;;2.07;;
8986;SDS011;4529;51.360;12.474;2023-07-31T02:30:29;1.97;;;1.80;;
8986;SDS011;4529;51.360;12.474;2023-07-31T02:35:33;4.20;;;1.67;;
8986;SDS011;4529;51.360;12.474;2023-07-31T02:40:37;4.47;;;2.00;;
8986;SDS011;4529;51.360;12.474;2023-07-31T02:45:41;3.03;;;1.70;;
8986;SDS011;4529;51.360;12.474;2023-07-31T02:50:45;1.90;;;1.80;;
8986;SDS011;4529;51.360;12.474;2023-07-31T02:55:49;4.47;;;2.00;;
8986;SDS011;4529;51.360;12.474;2023-07-31T03:00:53;3.93;;;2.00;;
8986;SDS011;4529;51.360;12.474;2023-07-31T03:05:57;2.00;;;1.80;;
8986;SDS011;4529;51.360;12.474;2023-07-31T03:11:02;4.03;;;1.80;;
8986;SDS011;4529;51.360;12.474;2023-07-31T03:16:06;2.07;;;1.80;;
8986;SDS011;4529;51.360;12.474;2023-07-31T03:21:10;2.80;;;2.00;;
8986;SDS011;4529;51.360;12.474;2023-07-31T03:26:14;3.87;;;2.10;;
8986;SDS011;4529;51.360;12.474;2023-07-31T03:31:18;2.83;;;1.80;;
8986;SDS011;4529;51.360;12.474;2023-07-31T03:36:22;1.97;;;1.80;;
8986;SDS011;4529;51.360;12.474;2023-07-31T03:41:26;3.10;;;1.90;;
8986;SDS011;4529;51.360;12.474;2023-07-31T03:46:31;3.20;;;1.90;;
8986;SDS011;4529;51.360;12.474;2023-07-31T03:51:35;2.40;;;2.20;;
8986;SDS011;4529;51.360;12.474;2023-07-31T03:56:39;2.37;;;1.90;;
8986;SDS011;4529;51.360;12.474;2023-07-31T04:01:43;4.17;;;2.07;;
8986;SDS011;4529;51.360;12.474;2023-07-31T04:06:47;2.37;;;1.83;;
8986;SDS011;4529;51.360;12.474;2023-07-31T04:11:51;2.10;;;1.80;;
8986;SDS011;4529;51.360;12.474;2023-07-31T04:16:55;4.17;;;2.10;;
8986;SDS011;4529;51.360;12.474;2023-07-31T04:21:59;2.80;;;1.83;;
8986;SDS011;4529;51.360;12.474;2023-07-31T04:27:03;2.47;;;1.83;;
8986;SDS011;4529;51.360;12.474;2023-07-31T04:32:07;3.03;;;2.30;;
8986;SDS011;4529;51.360;12.474;2023-07-31T04:37:10;2.57;;;2.10;;
8986;SDS011;4529;51.360;12.474;2023-07-31T04:42:13;9.83;;;2.30;;
8986;SDS011;4529;51.360;12.474;2023-07-31T04:47:17;4.20;;;1.77;;
8986;SDS011;4529;51.360;12.474;2023-07-31T04:52:20;2.23;;;2.03;;
8986;SDS011;4529;51.360;12.474;2023-07-31T04:57:24;2.93;;;2.03;;
8986;SDS011;4529;51.360;12.474;2023-07-31T05:02:27;4.00;;;2.07;;
8986;SDS011;4529;51.360;12.474;2023-07-31T05:07:31;2.30;;;2.07;;
8986;SDS011;4529;51.360;12.474;2023-07-31T05:12:34;3.73;;;2.47;;
8986;SDS011;4529;51.360;12.474;2023-07-31T05:17:43;4.83;;;2.50;;
8986;SDS011;4529;51.360;12.474;2023-07-31T05:22:47;3.00;;;2.10;;
8986;SDS011;4529;51.360;12.474;2023-07-31T05:27:50;2.80;;;2.30;;
8986;SDS011;4529;51.360;12.474;2023-07-31T05:32:53;3.43;;;2.23;;
8986;SDS011;4529;51.360;12.474;2023-07-31T05:37:57;4.60;;;2.30;;
8986;SDS011;4529;51.360;12.474;2023-07-31T05:43:00;2.70;;;2.10;;
8986;SDS011;4529;51.360;12.474;2023-07-31T05:48:09;3.27;;;2.20;;
8986;SDS011;4529;51.360;12.474;2023-07-31T05:53:12;3.63;;;2.53;;
8986;SDS011;4529;51.360;12.474;2023-07-31T05:58:15;3.90;;;2.23;;
8986;SDS011;4529;51.360;12.474;2023-07-31T06:03:19;2.67;;;2.30;;
8986;SDS011;4529;51.360;12.474;2023-07-31T06:08:22;4.53;;;2.63;;
8986;SDS011;4529;51.360;12.474;2023-07-31T06:13:26;4.57;;;2.20;;
8986;SDS011;4529;51.360;12.474;2023-07-31T06:18:29;2.67;;;2.40;;
8986;SDS011;4529;51.360;12.474;2023-07-31T06:23:33;4.07;;;2.27;;
8986;SDS011;4529;51.360;12.474;2023-07-31T06:28:36;4.60;;;2.37;;
8986;SDS011;4529;51.360;12.474;2023-07-31T06:33:40;3.70;;;2.50;;
8986;SDS011;4529;51.360;12.474;2023-07-31T06:38:43;2.40;;;2.20;;
8986;SDS011;4529;51.360;12.474;2023-07-31T06:43:47;5.47;;;2.30;;
8986;SDS011;4529;51.360;12.474;2023-07-31T06:48:50;4.83;;;2.37;;
8986;SDS011;4529;51.360;12.474;2023-07-31T06:53:54;4.23;;;2.60;;
8986;SDS011;4529;51.360;12.474;2023-07-31T06:58:57;7.93;;;2.77;;
8986;SDS011;4529;51.360;12.474;2023-07-31T07:04:00;2.10;;;2.00;;
8986;SDS011;4529;51.360;12.474;2023-07-31T07:09:04;5.17;;;2.30;;
8986;SDS011;4529;51.360;12.474;2023-07-31T07:14:07;4.70;;;2.30;;
8986;SDS011;4529;51.360;12.474;2023-07-31T07:19:11;2.63;;;2.17;;
8986;SDS011;4529;51.360;12.474;2023-07-31T07:24:14;4.07;;;2.50;;
8986;SDS011;4529;51.360;12.474;2023-07-31T07:29:18;3.37;;;2.30;;
8986;SDS011;4529;51.360;12.474;2023-07-31T07:34:27;3.33;;;2.43;;
8986;SDS011;4529;51.360;12.474;2023-07-31T07:39:30;2.67;;;2.40;;
8986;SDS011;4529;51.360;12.474;2023-07-31T07:44:34;2.60;;;2.00;;
8986;SDS011;4529;51.360;12.474;2023-07-31T07:49:39;2.97;;;2.37;;
8986;SDS011;4529;51.360;12.474;2023-07-31T07:54:43;2.87;;;2.40;;
8986;SDS011;4529;51.360;12.474;2023-07-31T07:59:47;5.37;;;2.50;;
8986;SDS011;4529;51.360;12.474;2023-07-31T08:04:51;2.90;;;2.30;;
8986;SDS011;4529;51.360;12.474;2023-07-31T08:09:54;4.47;;;2.50;;
8986;SDS011;4529;51.360;12.474;2023-07-31T08:14:58;4.57;;;2.40;;
8986;SDS011;4529;51.360;12.474;2023-07-31T08:20:01;2.73;;;2.53;;
8986;SDS011;4529;51.360;12.474;2023-07-31T08:25:05;2.43;;;2.20;;
8986;SDS011;4529;51.360;12.474;2023-07-31T08:30:09;6.80;;;2.70;;
8986;SDS011;4529;51.360;12.474;2023-07-31T08:35:12;2.40;;;2.13;;
8986;SDS011;4529;51.360;12.474;2023-07-31T08:40:15;3.77;;;2.20;;
8986;SDS011;4529;51.360;12.474;2023-07-31T08:45:19;3.27;;;2.40;;
8986;SDS011;4529;51.360;12.474;2023-07-31T08:50:22;3.93;;;2.20;;
8986;SDS011;4529;51.360;12.474;2023-07-31T08:55:26;5.13;;;2.30;;
8986;SDS011;4529;51.360;12.474;2023-07-31T09:00:29;4.90;;;2.50;;
8986;SDS011;4529;51.360;12.474;2023-07-31T09:05:35;4.33;;;2.47;;
8986;SDS011;4529;51.360;12.474;2023-07-31T09:10:41;3.93;;;2.33;;
8986;SDS011;4529;51.360;12.474;2023-07-31T09:15:45;4.43;;;2.33;;
8986;SDS011;4529;51.360;12.474;2023-07-31T09:21:08;5.57;;;2.23;;
8986;SDS011;4529;51.360;12.474;2023-07-31T09:26:03;3.30;;;2.57;;
8986;SDS011;4529;51.360;12.474;2023-07-31T09:31:06;3.83;;;2.80;;
8986;SDS011;4529;51.360;12.474;2023-07-31T09:36:10;5.17;;;2.50;;
8986;SDS011;4529;51.360;12.474;2023-07-31T09:41:13;4.43;;;2.50;;
8986;SDS011;4529;51.360;12.474;2023-07-31T09:46:17;3.00;;;2.40;;
8986;SDS011;4529;51.360;12.474;2023-07-31T09:51:26;3.07;;;2.57;;
8986;SDS011;4529;51.360;12.474;2023-07-31T09:56:29;3.60;;;2.70;;
8986;SDS011;4529;51.360;12.474;2023-07-31T10:01:33;2.93;;;2.57;;
8986;SDS011;4529;51.360;12.474;2023-07-31T10:06:37;3.43;;;2.43;;
8986;SDS011;4529;51.360;12.474;2023-07-31T10:11:46;4.63;;;2.60;;
8986;SDS011;4529;51.360;12.474;2023-07-31T10:17:01;3.23;;;2.17;;
8986;SDS011;4529;51.360;12.474;2023-07-31T10:22:04;4.87;;;2.67;;
8986;SDS011;4529;51.360;12.474;2023-07-31T10:27:08;2.57;;;2.37;;
8986;SDS011;4529;51.360;12.474;2023-07-31T10:32:11;2.77;;;2.50;;
8986;SDS011;4529;51.360;12.474;2023-07-31T10:37:30;3.70;;;2.40;;
8986;SDS011;4529;51.360;12.474;2023-07-31T10:42:46;2.60;;;2.40;;
8986;SDS011;4529;51.360;12.474;2023-07-31T10:47:51;2.93;;;2.40;;
8986;SDS011;4529;51.360;12.474;2023-07-31T10:52:55;2.80;;;2.47;;
8986;SDS011;4529;51.360;12.474;2023-07-31T10:58:04;4.37;;;2.60;;
8986;SDS011;4529;51.360;12.474;2023-07-31T11:03:13;3.70;;;2.47;;
8986;SDS011;4529;51.360;12.474;2023-07-31T11:08:26;3.63;;;2.60;;
8986;SDS011;4529;51.360;12.474;2023-07-31T11:13:29;3.20;;;2.43;;
8986;SDS011;4529;51.360;12.474;2023-07-31T11:18:35;2.63;;;2.30;;
8986;SDS011;4529;51.360;12.474;2023-07-31T11:23:38;2.80;;;2.50;;
8986;SDS011;4529;51.360;12.474;2023-07-31T11:28:42;3.37;;;2.50;;
8986;SDS011;4529;51.360;12.474;2023-07-31T11:33:45;2.70;;;2.40;;
8986;SDS011;4529;51.360;12.474;2023-07-31T11:38:49;3.07;;;2.60;;
8986;SDS011;4529;51.360;12.474;2023-07-31T11:43:59;3.57;;;2.90;;
8986;SDS011;4529;51.360;12.474;2023-07-31T11:48:59;3.60;;;2.80;;
8986;SDS011;4529;51.360;12.474;2023-07-31T11:54:02;4.37;;;2.63;;
8986;SDS011;4529;51.360;12.474;2023-07-31T11:59:06;4.60;;;2.80;;
8986;SDS011;4529;51.360;12.474;2023-07-31T12:04:09;5.40;;;2.77;;
8986;SDS011;4529;51.360;12.474;2023-07-31T12:09:14;4.07;;;2.80;;
8986;SDS011;4529;51.360;12.474;2023-07-31T12:14:25;3.83;;;2.73;;
8986;SDS011;4529;51.360;12.474;2023-07-31T12:19:28;4.27;;;2.90;;
8986;SDS011;4529;51.360;12.474;2023-07-31T12:24:32;3.47;;;2.70;;
8986;SDS011;4529;51.360;12.474;2023-07-31T12:29:36;4.70;;;2.70;;
8986;SDS011;4529;51.360;12.474;2023-07-31T12:34:43;3.10;;;2.80;;
8986;SDS011;4529;51.360;12.474;2023-07-31T12:39:46;4.47;;;2.77;;
8986;SDS011;4529;51.360;12.474;2023-07-31T12:44:50;4.03;;;2.50;;
8986;SDS011;4529;51.360;12.474;2023-07-31T12:49:53;4.20;;;3.10;;
8986;SDS011;4529;51.360;12.474;2023-07-31T12:54:57;4.33;;;3.10;;
8986;SDS011;4529;51.360;12.474;2023-07-31T13:00:00;4.17;;;2.80;;
8986;SDS011;4529;51.360;12.474;2023-07-31T13:05:04;3.27;;;2.80;;
8986;SDS011;4529;51.360;12.474;2023-07-31T13:10:07;4.13;;;2.63;;
8986;SDS011;4529;51.360;12.474;2023-07-31T13:15:11;3.77;;;2.80;;
8986;SDS011;4529;51.360;12.474;2023-07-31T13:20:15;6.07;;;3.00;;
8986;SDS011;4529;51.360;12.474;2023-07-31T13:25:19;4.73;;;3.10;;
8986;SDS011;4529;51.360;12.474;2023-07-31T13:30:23;4.43;;;2.90;;
8986;SDS011;4529;51.360;12.474;2023-07-31T13:35:27;5.43;;;2.80;;
8986;SDS011;4529;51.360;12.474;2023-07-31T13:40:31;5.87;;;2.60;;
8986;SDS011;4529;51.360;12.474;2023-07-31T13:45:35;6.70;;;2.60;;
8986;SDS011;4529;51.360;12.474;2023-07-31T13:50:40;3.13;;;2.50;;
8986;SDS011;4529;51.360;12.474;2023-07-31T13:55:43;3.50;;;2.40;;
8986;SDS011;4529;51.360;12.474;2023-07-31T14:00:47;2.70;;;2.50;;
8986;SDS011;4529;51.360;12.474;2023-07-31T14:05:51;5.27;;;2.33;;
8986;SDS011;4529;51.360;12.474;2023-07-31T14:10:55;3.93;;;2.57;;
8986;SDS011;4529;51.360;12.474;2023-07-31T14:15:58;3.53;;;2.60;;
8986;SDS011;4529;51.360;12.474;2023-07-31T14:21:02;2.93;;;2.50;;
8986;SDS011;4529;51.360;12.474;2023-07-31T14:26:05;3.73;;;2.43;;
8986;SDS011;4529;51.360;12.474;2023-07-31T14:31:09;2.70;;;2.50;;
8986;SDS011;4529;51.360;12.474;2023-07-31T14:36:12;2.80;;;2.40;;
8986;SDS011;4529;51.360;12.474;2023-07-31T14:41:16;2.83;;;2.40;;
8986;SDS011;4529;51.360;12.474;2023-07-31T14:46:19;2.47;;;2.27;;
8986;SDS011;4529;51.360;12.474;2023-07-31T14:51:22;2.50;;;2.30;;
8986;SDS011;4529;51.360;12.474;2023-07-31T14:56:26;3.17;;;2.53;;
8986;SDS011;4529;51.360;12.474;2023-07-31T15:01:29;2.43;;;2.10;;
8986;SDS011;4529;51.360;12.474;2023-07-31T15:06:33;2.50;;;2.30;;
8986;SDS011;4529;51.360;12.474;2023-07-31T15:11:36;4.80;;;2.10;;
8986;SDS011;4529;51.360;12.474;2023-07-31T15:16:40;2.97;;;2.00;;
8986;SDS011;4529;51.360;12.474;2023-07-31T15:21:43;3.00;;;2.27;;
8986;SDS011;4529;51.360;12.474;2023-07-31T15:26:47;2.57;;;2.20;;
8986;SDS011;4529;51.360;12.474;2023-07-31T15:31:51;3.50;;;2.07;;
8986;SDS011;4529;51.360;12.474;2023-07-31T15:36:55;3.40;;;2.37;;
8986;SDS011;4529;51.360;12.474;2023-07-31T15:41:59;3.27;;;2.33;;
8986;SDS011;4529;51.360;12.474;2023-07-31T15:47:04;2.90;;;2.23;;
8986;SDS011;4529;51.360;12.474;2023-07-31T15:52:07;4.30;;;2.40;;
8986;SDS011;4529;51.360;12.474;2023-07-31T15:57:11;4.43;;;2.57;;
8986;SDS011;4529;51.360;12.474;2023-07-31T16:02:15;3.57;;;2.73;;
8986;SDS011;4529;51.360;12.474;2023-07-31T16:07:19;2.90;;;2.33;;
8986;SDS011;4529;51.360;12.474;2023-07-31T16:12:23;7.10;;;2.37;;
8986;SDS011;4529;51.360;12.474;2023-07-31T16:17:28;3.67;;;2.73;;
8986;SDS011;4529;51.360;12.474;2023-07-31T16:22:32;4.07;;;2.90;;
8986;SDS011;4529;51.360;12.474;2023-07-31T16:27:36;4.70;;;2.87;;
8986;SDS011;4529;51.360;12.474;2023-07-31T16:32:39;3.97;;;2.90;;
8986;SDS011;4529;51.360;12.474;2023-07-31T16:37:43;3.33;;;2.87;;
8986;SDS011;4529;51.360;12.474;2023-07-31T16:42:46;4.63;;;3.10;;
8986;SDS011;4529;51.360;12.474;2023-07-31T16:47:50;4.57;;;2.80;;
8986;SDS011;4529;51.360;12.474;2023-07-31T16:52:53;3.73;;;2.77;;
8986;SDS011;4529;51.360;12.474;2023-07-31T16:57:57;2.63;;;2.43;;
8986;SDS011;4529;51.360;12.474;2023-07-31T17:03:01;3.80;;;2.80;;
8986;SDS011;4529;51.360;12.474;2023-07-31T17:08:04;3.77;;;2.80;;
8986;SDS011;4529;51.360;12.474;2023-07-31T17:13:08;3.43;;;2.80;;
8986;SDS011;4529;51.360;12.474;2023-07-31T17:18:12;3.27;;;2.70;;
8986;SDS011;4529;51.360;12.474;2023-07-31T17:23:16;5.40;;;3.00;;
8986;SDS011;4529;51.360;12.474;2023-07-31T17:28:20;3.40;;;2.83;;
8986;SDS011;4529;51.360;12.474;2023-07-31T17:33:24;4.17;;;2.80;;
8986;SDS011;4529;51.360;12.474;2023-07-31T17:38:28;4.27;;;2.77;;
8986;SDS011;4529;51.360;12.474;2023-07-31T17:43:32;5.60;;;3.07;;
8986;SDS011;4529;51.360;12.474;2023-07-31T17:48:37;3.70;;;2.83;;
8986;SDS011;4529;51.360;12.474;2023-07-31T17:53:41;4.67;;;2.77;;
8986;SDS011;4529;51.360;12.474;2023-07-31T17:58:44;5.10;;;3.20;;
8986;SDS011;4529;51.360;12.474;2023-07-31T18:03:48;3.10;;;2.80;;
8986;SDS011;4529;51.360;12.474;2023-07-31T18:08:51;4.17;;;2.87;;
8986;SDS011;4529;51.360;12.474;2023-07-31T18:13:55;4.23;;;2.67;;
8986;SDS011;4529;51.360;12.474;2023-07-31T18:18:58;4.53;;;3.00;;
8986;SDS011;4529;51.360;12.474;2023-07-31T18:24:02;5.03;;;2.80;;
8986;SDS011;4529;51.360;12.474;2023-07-31T18:29:05;3.47;;;2.80;;
8986;SDS011;4529;51.360;12.474;2023-07-31T18:34:08;2.70;;;2.47;;
8986;SDS011;4529;51.360;12.474;2023-07-31T18:39:12;4.33;;;2.80;;
8986;SDS011;4529;51.360;12.474;2023-07-31T18:44:15;4.43;;;2.87;;
8986;SDS011;4529;51.360;12.474;2023-07-31T18:49:19;4.33;;;2.97;;
8986;SDS011;4529;51.360;12.474;2023-07-31T18:54:22;4.83;;;3.03;;
8986;SDS011;4529;51.360;12.474;2023-07-31T18:59:26;5.17;;;3.33;;
8986;SDS011;4529;51.360;12.474;2023-07-31T19:04:29;3.43;;;2.87;;
8986;SDS011;4529;51.360;12.474;2023-07-31T19:09:33;3.03;;;2.73;;
8986;SDS011;4529;51.360;12.474;2023-07-31T19:14:37;4.33;;;2.70;;
8986;SDS011;4529;51.360;12.474;2023-07-31T19:19:41;5.13;;;3.00;;
8986;SDS011;4529;51.360;12.474;2023-07-31T19:24:45;3.80;;;2.63;;
8986;SDS011;4529;51.360;12.474;2023-07-31T19:29:49;5.30;;;2.90;;
8986;SDS011;4529;51.360;12.474;2023-07-31T19:34:53;4.93;;;3.07;;
8986;SDS011;4529;51.360;12.474;2023-07-31T19:39:57;3.63;;;2.60;;
8986;SDS011;4529;51.360;12.474;2023-07-31T19:45:02;3.70;;;2.80;;
8986;SDS011;4529;51.360;12.474;2023-07-31T19:50:06;7.07;;;3.03;;
8986;SDS011;4529;51.360;12.474;2023-07-31T19:55:10;3.37;;;2.90;;
8986;SDS011;4529;51.360;12.474;2023-07-31T20:00:14;3.83;;;2.87;;
8986;SDS011;4529;51.360;12.474;2023-07-31T20:05:18;4.77;;;3.13;;
8986;SDS011;4529;51.360;12.474;2023-07-31T20:10:22;4.53;;;3.00;;
8986;SDS011;4529;51.360;12.474;2023-07-31T20:15:27;3.57;;;2.87;;
8986;SDS011;4529;51.360;12.474;2023-07-31T20:20:31;4.60;;;3.20;;
8986;SDS011;4529;51.360;12.474;2023-07-31T20:25:34;3.97;;;2.70;;
8986;SDS011;4529;51.360;12.474;2023-07-31T20:30:37;4.30;;;2.97;;
8986;SDS011;4529;51.360;12.474;2023-07-31T20:35:41;3.00;;;2.70;;
8986;SDS011;4529;51.360;12.474;2023-07-31T20:40:44;6.03;;;3.10;;
8986;SDS011;4529;51.360;12.474;2023-07-31T20:45:48;4.43;;;2.63;;
8986;SDS011;4529;51.360;12.474;2023-07-31T20:50:51;2.83;;;2.50;;
8986;SDS011;4529;51.360;12.474;2023-07-31T20:55:55;3.10;;;2.70;;
8986;SDS011;4529;51.360;12.474;2023-07-31T21:00:58;6.23;;;2.97;;
8986;SDS011;4529;51.360;12.474;2023-07-31T21:06:02;8.37;;;2.80;;
8986;SDS011;4529;51.360;12.474;2023-07-31T21:11:05;5.07;;;3.00;;
8986;SDS011;4529;51.360;12.474;2023-07-31T21:16:09;3.00;;;2.60;;
8986;SDS011;4529;51.360;12.474;2023-07-31T21:21:12;4.03;;;2.50;;
8986;SDS011;4529;51.360;12.474;2023-07-31T21:26:16;6.23;;;3.07;;
8986;SDS011;4529;51.360;12.474;2023-07-31T21:31:19;3.63;;;2.60;;
8986;SDS011;4529;51.360;12.474;2023-07-31T21:36:22;4.30;;;2.50;;
8986;SDS011;4529;51.360;12.474;2023-07-31T21:41:27;3.60;;;2.60;;
8986;SDS011;4529;51.360;12.474;2023-07-31T21:46:31;3.23;;;2.60;;
8986;SDS011;4529;51.360;12.474;2023-07-31T21:51:35;3.40;;;2.67;;
8986;SDS011;4529;51.360;12.474;2023-07-31T21:56:39;3.43;;;2.50;;
8986;SDS011;4529;51.360;12.474;2023-07-31T22:01:43;3.23;;;2.70;;
8986;SDS011;4529;51.360;12.474;2023-07-31T22:06:47;2.87;;;2.53;;
8986;SDS011;4529;51.360;12.474;2023-07-31T22:11:52;4.17;;;2.43;;
8986;SDS011;4529;51.360;12.474;2023-07-31T22:16:55;4.07;;;2.70;;
8986;SDS011;4529;51.360;12.474;2023-07-31T22:21:59;3.77;;;2.60;;
8986;SDS011;4529;51.360;12.474;2023-07-31T22:27:02;4.33;;;2.80;;
8986;SDS011;4529;51.360;12.474;2023-07-31T22:32:06;2.80;;;2.57;;
8986;SDS011;4529;51.360;12.474;2023-07-31T22:37:09;4.13;;;3.03;;
8986;SDS011;4529;51.360;12.474;2023-07-31T22:42:13;3.73;;;3.00;;
8986;SDS011;4529;51.360;12.474;2023-07-31T22:47:16;4.37;;;2.80;;
8986;SDS011;4529;51.360;12.474;2023-07-31T22:52:19;5.77;;;3.10;;
8986;SDS011;4529;51.360;12.474;2023-07-31T22:57:23;5.00;;;3.10;;
8986;SDS011;4529;51.360;12.474;2023-07-31T23:02:26;3.83;;;3.03;;
8986;SDS011;4529;51.360;12.474;2023-07-31T23:07:30;6.57;;;3.17;;
8986;SDS011;4529;51.360;12.474;2023-07-31T23:12:34;5.03;;;3.43;;
8986;SDS011;4529;51.360;12.474;2023-07-31T23:17:37;4.23;;;3.23;;
8986;SDS011;4529;51.360;12.474;2023-07-31T23:22:41;3.87;;;3.30;;
8986;SDS011;4529;51.360;12.474;2023-07-31T23:27:44;5.43;;;3.53;;
8986;SDS011;4529;51.360;12.474;2023-07-31T23:32:48;4.93;;;3.10;;
8986;SDS011;4529;51.360;12.474;2023-07-31T23:37:51;3.73;;;3.37;;
8986;SDS011;4529;51.360;12.474;2023-07-31T23:42:55;3.60;;;3.30;;
8986;SDS011;4529;51.360;12.474;2023-07-31T23:47:58;4.33;;;3.23;;
8986;SDS011;4529;51.360;12.474;2023-07-31T23:53:02;3.70;;;3.27;;
8986;SDS011;4529;51.360;12.474;2023-07-31T23:58:05;4.77;;;3.33;;
